Time;durP1;ratioP1;P1;durP2;ratioP2;P2;SDS_P1;SDS_P2;PMS_P1;PMS_P2;Temp;Humidity;BMP_temperature;BMP_pressure;BME280_temperature;BME280_humidity;BME280_pressure;Samples;Min_cycle;Max_cycle;Signal;HPM_P1;HPM_P2
2023/01/08 00:01:12;;;;;;;2.80;1.20;;;;;;;6.53;53.15;100212.22;5065380;28;20059;-67
2023/01/08 00:03:38;;;;;;;2.95;1.08;;;;;;;7.08;51.65;100198.13;5057137;28;20074;-67
2023/01/08 00:06:06;;;;;;;2.55;1.30;;;;;;;7.09;51.75;100207.66;5063840;28;20032;-67
2023/01/08 00:08:36;;;;;;;1.98;1.08;;;;;;;7.06;52.11;100206.91;5061703;27;20702;-68
2023/01/08 00:11:01;;;;;;;3.47;1.38;;;;;;;7.03;51.98;100197.47;5062339;28;20068;-67
2023/01/08 00:13:27;;;;;;;1.90;1.08;;;;;;;6.90;52.48;100204.84;5057097;28;20119;-67
2023/01/08 00:15:53;;;;;;;2.38;0.93;;;;;;;6.77;52.24;100206.19;5059966;28;21319;-67
2023/01/08 00:18:23;;;;;;;2.08;0.98;;;;;;;6.90;52.42;100211.81;5061112;27;20044;-66
2023/01/08 00:20:51;;;;;;;2.08;0.65;;;;;;;6.81;52.72;100212.13;5068851;28;20117;-67
2023/01/08 00:23:19;;;;;;;3.10;1.45;;;;;;;6.72;53.29;100212.44;5058847;28;20041;-67
2023/01/08 00:25:45;;;;;;;1.85;1.13;;;;;;;7.21;52.00;100216.75;5058389;28;20048;-66
2023/01/08 00:28:13;;;;;;;2.50;1.13;;;;;;;7.12;51.90;100212.72;5060470;28;20556;-66
2023/01/08 00:30:42;;;;;;;2.58;1.27;;;;;;;7.04;52.10;100206.09;5057332;28;20043;-67
2023/01/08 00:33:08;;;;;;;3.42;1.30;;;;;;;7.23;51.76;100207.16;5059186;28;20074;-67
2023/01/08 00:35:34;;;;;;;1.65;1.08;;;;;;;7.24;51.62;100203.63;5056480;28;20500;-68
2023/01/08 00:38:00;;;;;;;2.60;1.52;;;;;;;6.99;52.66;100189.84;5066382;28;20093;-67
2023/01/08 00:40:25;;;;;;;3.95;1.30;;;;;;;6.60;53.43;100187.75;5061994;28;20039;-67
2023/01/08 00:42:51;;;;;;;7.35;1.65;;;;;;;6.90;52.49;100186.66;5073045;28;20094;-67
2023/01/08 00:45:16;;;;;;;3.72;1.67;;;;;;;7.00;52.34;100171.59;5060025;28;20082;-67
2023/01/08 00:47:44;;;;;;;1.70;1.08;;;;;;;6.93;52.66;100179.66;5056063;27;20047;-67
2023/01/08 00:50:10;;;;;;;4.57;1.00;;;;;;;7.10;52.20;100177.31;5091197;27;20031;-67
2023/01/08 00:52:35;;;;;;;2.38;1.25;;;;;;;6.36;54.03;100182.47;5056856;27;20044;-68
2023/01/08 00:55:00;;;;;;;2.85;1.25;;;;;;;6.85;52.85;100180.78;5068492;28;20486;-67
2023/01/08 00:57:36;;;;;;;2.70;1.70;;;;;;;6.64;53.58;100181.53;5068788;28;20035;-67
2023/01/08 01:00:07;;;;;;;6.13;1.15;;;;;;;6.85;52.97;100175.59;5064744;28;20040;-67
2023/01/08 01:02:37;;;;;;;3.13;0.88;;;;;;;6.60;54.12;100180.81;5061435;28;20472;-68
2023/01/08 01:05:08;;;;;;;6.80;1.30;;;;;;;6.86;53.11;100179.91;5065903;28;20036;-66
2023/01/08 01:07:34;;;;;;;3.95;1.17;;;;;;;6.45;53.89;100176.97;5079828;27;20596;-68
2023/01/08 01:10:02;;;;;;;2.42;1.02;;;;;;;6.78;53.38;100176.72;5065277;28;20044;-67
2023/01/08 01:12:28;;;;;;;3.47;1.30;;;;;;;6.71;53.79;100175.25;5061879;28;20082;-67
2023/01/08 01:14:53;;;;;;;3.45;1.40;;;;;;;6.88;53.10;100180.66;5066446;28;20055;-67
2023/01/08 01:17:18;;;;;;;2.75;0.85;;;;;;;6.91;52.96;100170.19;5065955;28;20377;-66
2023/01/08 01:19:46;;;;;;;2.70;0.90;;;;;;;6.60;54.13;100166.97;5063297;28;20621;-67
2023/01/08 01:22:12;;;;;;;1.73;1.10;;;;;;;7.08;52.74;100166.13;5068587;28;20115;-66
2023/01/08 01:24:40;;;;;;;1.85;1.13;;;;;;;6.60;54.53;100161.78;5061316;28;20040;-67
2023/01/08 01:27:05;;;;;;;2.30;1.25;;;;;;;6.61;54.19;100156.53;5056219;28;20072;-66
2023/01/08 01:29:31;;;;;;;3.28;1.05;;;;;;;6.58;54.33;100163.59;5065868;28;20057;-67
2023/01/08 01:31:59;;;;;;;1.67;1.08;;;;;;;6.64;54.46;100169.41;5078303;27;20036;-67
2023/01/08 01:34:27;;;;;;;1.88;0.80;;;;;;;6.36;55.38;100163.47;5055997;28;20123;-66
2023/01/08 01:36:52;;;;;;;1.75;0.90;;;;;;;6.61;54.43;100173.84;5060724;28;20844;-67
2023/01/08 01:39:18;;;;;;;1.83;0.93;;;;;;;6.90;53.37;100171.06;5064480;28;20108;-66
2023/01/08 01:41:45;;;;;;;3.33;1.67;;;;;;;6.35;55.33;100172.16;5061258;28;20034;-67
2023/01/08 01:44:45;;;;;;;5.95;1.45;;;;;;;6.59;54.53;100175.66;5049792;28;20225;-68
2023/01/08 01:47:29;;;;;;;7.20;1.30;;;;;;;6.44;54.67;100166.63;5062543;28;20040;-66
2023/01/08 01:50:12;;;;;;;2.58;0.80;;;;;;;6.55;54.84;100163.69;5062174;28;20051;-67
2023/01/08 01:52:41;;;;;;;1.90;0.70;;;;;;;6.81;54.03;100166.22;5057559;28;20074;-67
2023/01/08 01:55:13;;;;;;;5.30;0.93;;;;;;;6.14;56.30;100173.69;5062548;28;20390;-67
2023/01/08 01:57:46;;;;;;;1.70;0.95;;;;;;;6.56;55.05;100170.59;5059872;28;20541;-67
2023/01/08 02:00:12;;;;;;;1.63;0.93;;;;;;;6.61;54.77;100163.47;5062528;28;20436;-66
2023/01/08 02:02:38;;;;;;;4.07;0.98;;;;;;;6.53;55.52;100165.47;5060526;27;20086;-68
2023/01/08 02:05:04;;;;;;;3.50;1.55;;;;;;;6.29;55.87;100152.44;5066278;28;20082;-66
2023/01/08 02:07:59;;;;;;;1.23;0.90;;;;;;;6.55;55.29;100155.88;5063240;28;20512;-66
2023/01/08 02:10:56;;;;;;;3.70;1.05;;;;;;;6.35;55.86;100152.25;5056621;28;20094;-67
2023/01/08 02:13:37;;;;;;;2.00;1.08;;;;;;;6.79;54.63;100156.78;5054924;27;20680;-66
2023/01/08 02:16:20;;;;;;;3.00;1.13;;;;;;;6.57;55.32;100172.25;5064463;28;20427;-67
2023/01/08 02:18:56;;;;;;;2.15;1.13;;;;;;;6.82;54.95;100157.53;5053472;28;20040;-67
2023/01/08 02:21:40;;;;;;;1.63;0.63;;;;;;;7.08;54.00;100137.53;5061668;28;20873;-67
2023/01/08 02:24:23;;;;;;;1.80;0.88;;;;;;;7.19;54.37;100140.56;5067900;28;20039;-67
2023/01/08 02:26:54;;;;;;;2.60;0.90;;;;;;;7.00;55.18;100130.03;5062581;28;20059;-66
2023/01/08 02:29:22;;;;;;;1.08;0.50;;;;;;;6.95;55.71;100131.09;5053088;28;20049;-68
2023/01/08 02:31:48;;;;;;;3.85;1.00;;;;;;;7.10;55.42;100123.56;5074357;27;20043;-66
2023/01/08 02:34:14;;;;;;;1.80;0.90;;;;;;;7.16;54.97;100138.09;5059303;28;20250;-66
2023/01/08 02:36:49;;;;;;;4.75;0.95;;;;;;;7.11;55.24;100132.25;5056819;28;20044;-66
2023/01/08 02:39:42;;;;;;;4.90;1.58;;;;;;;6.74;56.46;100138.78;5076771;28;20048;-67
2023/01/08 02:42:29;;;;;;;2.15;1.05;;;;;;;7.40;54.65;100138.06;5050999;28;20040;-66
2023/01/08 02:45:08;;;;;;;1.55;0.80;;;;;;;7.35;54.97;100140.00;5061152;28;20446;-65
2023/01/08 02:48:05;;;;;;;1.92;0.82;;;;;;;7.16;55.26;100143.31;5062148;28;20461;-67
2023/01/08 02:50:42;;;;;;;2.00;0.90;;;;;;;7.15;55.59;100143.34;5059970;28;20123;-66
2023/01/08 02:53:17;;;;;;;2.40;1.30;;;;;;;7.15;55.03;100136.41;5060063;28;20135;-67
2023/01/08 02:55:54;;;;;;;3.40;0.75;;;;;;;7.19;55.07;100130.19;5040865;28;20376;-66
2023/01/08 02:58:22;;;;;;;3.92;1.00;;;;;;;7.28;54.66;100114.22;5061104;28;20063;-67
2023/01/08 03:00:52;;;;;;;3.30;1.17;;;;;;;7.21;54.82;100117.97;5058219;28;20032;-66
2023/01/08 03:03:22;;;;;;;1.27;0.50;;;;;;;7.13;54.76;100109.63;5061644;28;20125;-66
2023/01/08 03:05:51;;;;;;;1.88;0.60;;;;;;;7.05;55.19;100119.47;5057275;28;20090;-66
2023/01/08 03:08:23;;;;;;;2.83;0.75;;;;;;;6.94;55.38;100127.66;5064350;28;20059;-66
2023/01/08 03:11:11;;;;;;;4.05;0.75;;;;;;;7.09;54.57;100118.47;5055815;28;20501;-66
2023/01/08 03:13:44;;;;;;;4.47;0.80;;;;;;;6.87;55.10;100128.78;5054582;28;20451;-67
2023/01/08 03:16:15;;;;;;;1.38;0.82;;;;;;;6.99;54.92;100122.28;5062196;28;20036;-67
2023/01/08 03:18:47;;;;;;;1.27;0.53;;;;;;;7.28;53.74;100114.22;5059057;28;20067;-67
2023/01/08 03:21:16;;;;;;;3.00;0.60;;;;;;;7.02;54.48;100122.16;5061010;28;20790;-67
2023/01/08 03:23:43;;;;;;;1.55;0.80;;;;;;;6.79;54.75;100131.66;5063766;27;20051;-67
2023/01/08 03:26:12;;;;;;;4.85;0.93;;;;;;;6.86;54.46;100129.69;5065357;28;20044;-67
2023/01/08 03:28:47;;;;;;;1.30;0.60;;;;;;;7.00;53.79;100122.25;5058862;28;20040;-67
2023/01/08 03:31:15;;;;;;;1.20;0.60;;;;;;;6.72;53.78;100121.56;5049266;28;20417;-68
2023/01/08 03:33:44;;;;;;;3.47;0.57;;;;;;;6.87;52.75;100128.78;5069315;28;20040;-67
2023/01/08 03:36:14;;;;;;;2.10;0.47;;;;;;;6.20;53.38;100122.44;5060562;28;20036;-66
2023/01/08 03:38:47;;;;;;;2.78;0.40;;;;;;;6.28;52.63;100129.97;5058521;28;20344;-66
2023/01/08 03:41:17;;;;;;;0.82;0.28;;;;;;;7.06;50.39;100123.75;5064985;28;20570;-66
2023/01/08 03:43:43;;;;;;;0.60;0.20;;;;;;;6.79;51.12;100136.84;5056546;28;20040;-67
2023/01/08 03:46:15;;;;;;;7.95;0.30;;;;;;;6.67;50.85;100138.13;5062458;28;20059;-67
2023/01/08 03:48:42;;;;;;;2.10;0.63;;;;;;;6.44;51.08;100131.16;5059108;28;20445;-67
2023/01/08 03:51:09;;;;;;;1.23;0.20;;;;;;;6.22;50.70;100136.22;5063526;28;20036;-67
2023/01/08 03:53:34;;;;;;;3.67;0.30;;;;;;;6.16;50.62;100138.16;5055603;27;20082;-69
2023/01/08 03:56:00;;;;;;;4.07;0.35;;;;;;;6.04;50.86;100135.06;5065055;28;20461;-67
2023/01/08 03:58:25;;;;;;;2.30;0.20;;;;;;;6.34;49.78;100139.31;5062472;28;20036;-66
2023/01/08 04:00:51;;;;;;;6.45;0.65;;;;;;;5.83;50.88;100138.34;5059789;28;20036;-67
2023/01/08 04:03:17;;;;;;;4.07;0.80;;;;;;;6.46;49.28;100124.19;5059101;28;20044;-67
2023/01/08 04:05:42;;;;;;;7.05;0.40;;;;;;;6.02;50.76;100121.28;5058236;28;20553;-67
2023/01/08 04:08:08;;;;;;;2.25;0.47;;;;;;;6.02;50.81;100128.25;5061943;28;20452;-67
2023/01/08 04:10:33;;;;;;;10.20;0.80;;;;;;;6.15;50.39;100129.53;5061986;28;20525;-67
2023/01/08 04:12:58;;;;;;;10.30;0.63;;;;;;;5.58;51.98;100123.56;5057043;28;20411;-67
2023/01/08 04:15:24;;;;;;;5.85;0.32;;;;;;;5.96;51.10;100123.25;5058954;28;20047;-66
2023/01/08 04:17:49;;;;;;;2.65;0.30;;;;;;;5.67;52.32;100122.44;5058495;28;20036;-65
2023/01/08 04:20:15;;;;;;;3.53;0.28;;;;;;;5.52;52.37;100118.56;5059575;28;20027;-66
2023/01/08 04:22:40;;;;;;;7.63;0.65;;;;;;;5.87;51.34;100120.03;5061957;28;20826;-66
2023/01/08 04:25:06;;;;;;;4.03;0.47;;;;;;;6.09;50.87;100121.94;5062228;28;20358;-66
2023/01/08 04:27:32;;;;;;;9.30;0.40;;;;;;;6.31;50.43;100129.00;5073696;28;20040;-65
2023/01/08 04:29:57;;;;;;;1.45;0.30;;;;;;;5.88;51.50;100126.06;5083608;27;20047;-66
2023/01/08 04:32:22;;;;;;;9.27;0.40;;;;;;;6.26;50.88;100122.22;5063396;28;20035;-66
2023/01/08 04:34:48;;;;;;;4.13;0.57;;;;;;;5.75;52.04;100128.22;5066520;28;20084;-67
2023/01/08 04:37:13;;;;;;;4.68;0.38;;;;;;;6.01;51.87;100122.19;5064722;28;20036;-67
2023/01/08 04:39:39;;;;;;;4.75;0.65;;;;;;;5.81;52.45;100129.75;5064546;28;20039;-67
2023/01/08 04:42:04;;;;;;;5.97;0.40;;;;;;;5.96;52.18;100124.09;5061562;28;20041;-67
2023/01/08 04:44:30;;;;;;;2.00;0.35;;;;;;;5.91;52.34;100127.75;5062489;28;20031;-67
2023/01/08 04:46:55;;;;;;;8.52;0.65;;;;;;;5.98;52.05;100121.44;5066390;28;20405;-66
2023/01/08 04:49:21;;;;;;;7.65;0.40;;;;;;;5.84;52.79;100132.28;5065783;28;20175;-67
2023/01/08 04:51:46;;;;;;;5.85;0.30;;;;;;;6.17;51.69;100121.66;5065984;28;20050;-67
2023/01/08 04:54:12;;;;;;;6.05;0.30;;;;;;;6.28;51.61;100119.59;5061021;28;20039;-69
2023/01/08 04:56:37;;;;;;;4.20;0.20;;;;;;;6.37;51.27;100118.44;5057320;28;20044;-66
2023/01/08 04:59:03;;;;;;;3.05;0.25;;;;;;;6.24;51.75;100116.25;5062918;28;20214;-66
2023/01/08 05:01:28;;;;;;;11.70;1.05;;;;;;;6.18;52.11;100110.41;5063724;28;20150;-67
2023/01/08 05:04:02;;;;;;;4.55;0.47;;;;;;;6.18;52.03;100115.59;5062530;28;20040;-67
2023/01/08 05:06:29;;;;;;;3.42;0.22;;;;;;;6.27;51.73;100118.72;5065525;28;20040;-67
2023/01/08 05:08:55;;;;;;;8.65;0.55;;;;;;;6.29;51.79;100116.13;5063421;28;20063;-67
2023/01/08 05:11:21;;;;;;;11.88;1.00;;;;;;;6.25;52.18;100110.13;5064164;28;20285;-66
2023/01/08 05:13:47;;;;;;;12.70;0.63;;;;;;;6.19;52.79;100099.13;5058845;28;20516;-66
2023/01/08 05:16:13;;;;;;;9.13;0.85;;;;;;;6.19;53.05;100093.94;5063865;28;20055;-66
2023/01/08 05:18:38;;;;;;;5.05;0.60;;;;;;;6.32;52.02;100100.44;5062999;28;20501;-66
2023/01/08 05:21:04;;;;;;;6.05;0.30;;;;;;;6.33;52.27;100096.94;5061721;28;20076;-67
2023/01/08 05:23:31;;;;;;;3.38;0.45;;;;;;;6.36;52.16;100106.38;5072013;28;20131;-67
2023/01/08 05:26:02;;;;;;;8.80;0.57;;;;;;;6.35;52.51;100095.16;5062824;28;20339;-67
2023/01/08 05:28:28;;;;;;;2.80;0.20;;;;;;;6.13;53.54;100094.13;5065433;28;20050;-66
2023/01/08 05:30:54;;;;;;;2.33;0.22;;;;;;;6.29;53.28;100097.94;5062720;28;20048;-66
2023/01/08 05:33:20;;;;;;;4.25;0.77;;;;;;;6.14;53.70;100096.69;5061218;27;20040;-66
2023/01/08 05:35:45;;;;;;;4.90;0.20;;;;;;;6.33;53.62;100090.88;5060206;28;20400;-66
2023/01/08 05:38:11;;;;;;;8.65;0.93;;;;;;;6.33;53.75;100101.25;5064762;28;20035;-67
2023/01/08 05:40:36;;;;;;;4.00;1.00;;;;;;;6.17;54.64;100095.72;5046791;28;20036;-67
2023/01/08 05:43:04;;;;;;;3.00;0.43;;;;;;;6.38;54.34;100094.19;5062789;28;20090;-66
2023/01/08 05:45:30;;;;;;;3.53;0.75;;;;;;;6.08;55.96;100096.88;5066363;28;20039;-67
2023/01/08 05:47:55;;;;;;;2.47;0.40;;;;;;;6.39;55.16;100095.88;5063735;28;20032;-66
2023/01/08 05:50:21;;;;;;;4.10;0.40;;;;;;;6.45;54.54;100093.91;5068525;28;20036;-66
2023/01/08 05:52:46;;;;;;;5.85;0.50;;;;;;;5.99;56.62;100092.84;5065483;28;20067;-67
2023/01/08 05:55:12;;;;;;;2.38;0.35;;;;;;;6.08;56.81;100095.16;5063962;28;20611;-66
2023/01/08 05:57:37;;;;;;;3.20;0.52;;;;;;;5.95;56.83;100093.88;5067229;28;20044;-66
2023/01/08 06:00:08;;;;;;;2.85;0.93;;;;;;;6.45;55.44;100090.47;5060878;28;20093;-67
2023/01/08 06:02:37;;;;;;;1.85;0.50;;;;;;;6.55;55.51;100090.97;5060366;28;20035;-68
2023/01/08 06:05:02;;;;;;;3.33;0.60;;;;;;;6.29;56.43;100084.97;5062518;28;20409;-65
2023/01/08 06:07:28;;;;;;;1.33;0.60;;;;;;;6.44;56.14;100081.84;5064188;27;20032;-66
2023/01/08 06:09:53;;;;;;;1.10;0.60;;;;;;;6.02;57.09;100077.19;5061829;28;20036;-67
2023/01/08 06:12:19;;;;;;;1.23;0.60;;;;;;;6.21;56.86;100076.56;5062487;28;20502;-68
2023/01/08 06:14:44;;;;;;;3.50;0.40;;;;;;;6.37;56.67;100072.56;5066753;28;20048;-66
2023/01/08 06:17:10;;;;;;;1.67;0.60;;;;;;;6.37;56.54;100075.16;5058641;28;20064;-68
2023/01/08 06:19:35;;;;;;;4.43;0.60;;;;;;;6.06;57.78;100072.72;5061533;28;20044;-67
2023/01/08 06:22:01;;;;;;;3.10;0.88;;;;;;;6.24;57.42;100069.53;5065349;28;20149;-67
2023/01/08 06:24:26;;;;;;;2.15;0.70;;;;;;;6.17;57.90;100077.56;5073552;28;20472;-68
2023/01/08 06:26:51;;;;;;;1.90;0.50;;;;;;;6.07;57.82;100070.09;5094556;27;20036;-67
2023/01/08 06:29:17;;;;;;;1.55;0.50;;;;;;;6.45;56.60;100064.50;5067218;28;20067;-66
2023/01/08 06:31:42;;;;;;;4.10;0.50;;;;;;;6.28;57.24;100071.16;5060432;28;20034;-66
2023/01/08 06:34:08;;;;;;;2.30;0.45;;;;;;;6.32;57.35;100065.84;5061675;28;20442;-66
2023/01/08 06:36:33;;;;;;;1.88;0.88;;;;;;;6.49;56.66;100063.50;5061459;28;20040;-68
2023/01/08 06:38:59;;;;;;;3.00;0.65;;;;;;;6.54;56.58;100052.94;5068460;28;20031;-67
2023/01/08 06:41:24;;;;;;;3.95;0.60;;;;;;;6.34;57.04;100057.09;5090122;27;20039;-66
2023/01/08 06:43:50;;;;;;;3.00;0.40;;;;;;;6.56;56.62;100051.16;5075754;28;20091;-67
2023/01/08 06:46:15;;;;;;;1.35;0.75;;;;;;;6.63;56.52;100042.22;5077545;28;20048;-66
2023/01/08 06:48:40;;;;;;;3.28;1.05;;;;;;;6.56;56.21;100046.78;5066849;27;20608;-67
2023/01/08 06:51:07;;;;;;;1.95;0.85;;;;;;;6.31;57.31;100049.44;5052502;28;20052;-66
2023/01/08 06:53:32;;;;;;;2.80;0.75;;;;;;;6.41;56.98;100047.34;5061678;28;20032;-66
2023/01/08 06:55:58;;;;;;;2.08;0.68;;;;;;;5.93;58.24;100048.97;5061245;28;20055;-66
2023/01/08 06:58:25;;;;;;;3.30;0.77;;;;;;;5.88;58.72;100054.31;5062620;28;20502;-66
2023/01/08 07:00:51;;;;;;;2.42;0.50;;;;;;;5.97;58.63;100058.34;5061423;28;20240;-66
2023/01/08 07:03:16;;;;;;;1.27;0.50;;;;;;;6.29;57.06;100056.44;5065014;28;20581;-67
2023/01/08 07:05:42;;;;;;;3.45;0.50;;;;;;;6.11;57.84;100064.81;5056169;28;20040;-67
2023/01/08 07:08:14;;;;;;;4.03;0.80;;;;;;;6.18;57.28;100048.13;5063421;28;20467;-67
2023/01/08 07:10:40;;;;;;;2.25;0.45;;;;;;;5.99;57.69;100051.34;5074567;28;20114;-66
2023/01/08 07:13:09;;;;;;;1.48;0.57;;;;;;;6.22;57.00;100057.50;5067757;28;20044;-65
2023/01/08 07:15:36;;;;;;;2.92;0.50;;;;;;;5.94;57.54;100063.63;5060449;28;20050;-66
2023/01/08 07:18:05;;;;;;;1.00;0.52;;;;;;;6.31;56.55;100067.59;5062016;28;20043;-67
2023/01/08 07:20:32;;;;;;;1.15;0.60;;;;;;;6.39;56.24;100062.97;5065817;28;20496;-66
2023/01/08 07:23:06;;;;;;;3.30;0.32;;;;;;;6.24;56.67;100061.75;5055913;28;20043;-67
2023/01/08 07:25:32;;;;;;;3.25;0.30;;;;;;;6.02;57.16;100065.97;5064638;28;20035;-67
2023/01/08 07:27:58;;;;;;;5.53;0.70;;;;;;;5.92;57.35;100057.66;5059825;28;20067;-66
2023/01/08 07:30:25;;;;;;;3.35;0.77;;;;;;;6.31;56.46;100057.22;5062627;28;20135;-66
2023/01/08 07:32:50;;;;;;;8.43;0.60;;;;;;;5.99;57.35;100061.72;5046001;28;20375;-67
2023/01/08 07:35:16;;;;;;;1.77;0.70;;;;;;;6.36;56.31;100064.84;5075787;28;20572;-66
2023/01/08 07:37:42;;;;;;;1.40;0.47;;;;;;;6.42;56.39;100059.44;5059316;28;20615;-67
2023/01/08 07:40:09;;;;;;;2.05;0.85;;;;;;;6.16;57.52;100061.16;5055600;28;20054;-67
2023/01/08 07:42:35;;;;;;;3.30;0.77;;;;;;;6.37;57.07;100067.38;5064924;28;20145;-68
2023/01/08 07:45:00;;;;;;;1.60;0.55;;;;;;;5.94;57.87;100057.59;5064097;28;20405;-67
2023/01/08 07:47:26;;;;;;;3.78;0.88;;;;;;;6.17;57.85;100054.22;5059908;28;20036;-66
2023/01/08 07:49:51;;;;;;;3.83;0.73;;;;;;;6.40;56.80;100041.31;5059616;28;20588;-68
2023/01/08 07:52:17;;;;;;;2.88;0.85;;;;;;;6.20;57.52;100044.59;5058313;28;20768;-68
2023/01/08 07:54:42;;;;;;;2.78;0.95;;;;;;;6.36;56.96;100044.91;5076551;28;20410;-67
2023/01/08 07:57:08;;;;;;;2.03;0.60;;;;;;;6.25;57.30;100036.63;5062003;28;20059;-67
2023/01/08 07:59:33;;;;;;;1.50;0.63;;;;;;;6.44;56.64;100023.88;5069073;28;20043;-67
2023/01/08 08:01:58;;;;;;;3.20;0.73;;;;;;;6.36;56.95;100039.72;5061351;28;20039;-67
2023/01/08 08:04:24;;;;;;;3.67;0.65;;;;;;;6.33;57.02;100047.63;5067267;28;20031;-66
2023/01/08 08:06:50;;;;;;;4.47;0.98;;;;;;;6.48;56.67;100039.31;5073086;28;20677;-66
2023/01/08 08:09:15;;;;;;;2.03;0.73;;;;;;;6.32;57.12;100027.75;5062181;28;20458;-66
2023/01/08 08:11:41;;;;;;;3.80;1.00;;;;;;;6.34;56.84;100031.16;5062481;28;20031;-67
2023/01/08 08:14:06;;;;;;;3.78;0.90;;;;;;;5.95;58.43;100038.53;5065048;28;20749;-67
2023/01/08 08:16:32;;;;;;;5.72;1.20;;;;;;;6.25;56.92;100039.22;5076098;28;20067;-68
2023/01/08 08:18:59;;;;;;;3.70;1.17;;;;;;;6.19;57.34;100042.03;5060198;28;20075;-67
2023/01/08 08:21:24;;;;;;;1.67;0.80;;;;;;;6.33;57.05;100045.03;5064512;28;20060;-67
2023/01/08 08:23:50;;;;;;;3.97;0.85;;;;;;;6.13;57.55;100042.25;5059623;28;20473;-67
2023/01/08 08:26:16;;;;;;;4.95;1.20;;;;;;;6.26;57.32;100040.91;5061302;28;20054;-68
2023/01/08 08:28:41;;;;;;;4.00;0.80;;;;;;;6.08;56.89;100040.69;5059302;28;20036;-66
2023/01/08 08:31:07;;;;;;;1.38;0.55;;;;;;;6.18;57.33;100038.59;5064472;28;20040;-67
2023/01/08 08:33:32;;;;;;;3.25;0.80;;;;;;;5.65;58.41;100042.09;5058574;28;20071;-67
2023/01/08 08:35:58;;;;;;;1.98;0.85;;;;;;;5.81;58.02;100037.25;5061354;28;20896;-67
2023/01/08 08:38:25;;;;;;;5.75;1.05;;;;;;;5.60;58.56;100049.19;5062903;28;20043;-67
2023/01/08 08:40:50;;;;;;;2.58;0.73;;;;;;;5.97;57.25;100050.56;5059888;28;20111;-67
2023/01/08 08:43:16;;;;;;;1.20;0.45;;;;;;;5.85;57.83;100054.41;5059284;28;20041;-66
2023/01/08 08:45:41;;;;;;;2.33;0.50;;;;;;;6.19;56.67;100053.25;5060196;28;20202;-67
2023/01/08 08:48:07;;;;;;;1.92;0.75;;;;;;;5.68;57.83;100043.75;5062075;28;20041;-67
2023/01/08 08:50:34;;;;;;;8.30;1.15;;;;;;;5.50;58.09;100046.94;5075967;28;20098;-67
2023/01/08 08:53:04;;;;;;;5.63;0.50;;;;;;;6.13;56.75;100037.06;5057586;28;20086;-67
2023/01/08 08:55:30;;;;;;;3.03;0.60;;;;;;;6.39;55.60;100034.41;5062979;28;20087;-66
2023/01/08 08:58:05;;;;;;;1.52;0.60;;;;;;;6.49;55.63;100033.19;5060634;28;20245;-67
2023/01/08 09:00:31;;;;;;;4.10;0.50;;;;;;;6.13;56.45;100037.06;5078979;28;20856;-67
2023/01/08 09:02:56;;;;;;;6.18;0.50;;;;;;;5.90;57.43;100030.91;5059750;28;20120;-66
2023/01/08 09:05:22;;;;;;;1.48;0.40;;;;;;;5.67;57.56;100039.47;5059709;28;20042;-67
2023/01/08 09:07:47;;;;;;;2.38;0.30;;;;;;;6.03;56.91;100031.34;5062901;28;20044;-68
2023/01/08 09:10:12;;;;;;;4.30;0.68;;;;;;;6.19;56.22;100034.25;5063657;27;20040;-68
2023/01/08 09:12:38;;;;;;;2.10;0.40;;;;;;;5.99;56.99;100038.38;5063485;28;20043;-67
2023/01/08 09:15:04;;;;;;;4.80;0.57;;;;;;;5.84;58.02;100037.16;5065063;28;20514;-67
2023/01/08 09:17:29;;;;;;;4.28;0.65;;;;;;;6.05;57.11;100042.50;5059137;28;20545;-68
2023/01/08 09:19:55;;;;;;;2.80;0.52;;;;;;;6.46;56.24;100038.50;5064769;28;20569;-67
2023/01/08 09:22:20;;;;;;;2.72;0.63;;;;;;;6.39;56.46;100034.41;5062846;28;20043;-68
2023/01/08 09:24:46;;;;;;;4.00;0.40;;;;;;;6.12;57.08;100035.38;5064219;28;20031;-66
2023/01/08 09:27:12;;;;;;;3.85;0.95;;;;;;;5.90;57.05;100024.88;5065304;28;20825;-66
2023/01/08 09:29:38;;;;;;;2.35;0.68;;;;;;;6.65;55.63;100030.88;5079092;27;20089;-67
2023/01/08 09:32:06;;;;;;;2.63;0.70;;;;;;;7.01;54.35;100038.19;5062182;28;20111;-66
2023/01/08 09:34:33;;;;;;;2.20;1.13;;;;;;;6.89;53.61;100029.13;5062482;28;20132;-67
2023/01/08 09:36:58;;;;;;;5.85;1.17;;;;;;;6.05;56.27;100034.72;5068830;28;20985;-67
2023/01/08 09:39:23;;;;;;;4.60;1.08;;;;;;;6.56;54.91;100043.38;5064387;28;20054;-67
2023/01/08 09:41:50;;;;;;;9.77;1.38;;;;;;;6.28;55.05;100034.81;5063370;27;20430;-66
2023/01/08 09:44:27;;;;;;;4.88;1.52;;;;;;;6.41;54.97;100035.22;5061381;28;20047;-67
2023/01/08 09:46:54;;;;;;;7.20;1.85;;;;;;;5.97;55.20;100036.72;5062586;27;20027;-67
2023/01/08 09:49:40;;;;;;;3.53;1.23;;;;;;;5.93;54.98;100030.81;5063545;28;20048;-66
2023/01/08 09:52:10;;;;;;;2.80;1.45;;;;;;;6.69;53.54;100027.28;5063034;28;20043;-66
2023/01/08 09:54:36;;;;;;;3.65;1.10;;;;;;;6.59;53.49;100035.44;5077098;28;20536;-66
2023/01/08 09:57:02;;;;;;;5.38;1.23;;;;;;;6.79;53.48;100037.31;5065434;28;20036;-66
2023/01/08 09:59:27;;;;;;;4.63;0.80;;;;;;;7.51;52.11;100037.09;5068326;28;20032;-67
2023/01/08 10:01:53;;;;;;;6.07;0.70;;;;;;;7.59;50.86;100035.06;5064601;28;20294;-66
2023/01/08 10:04:25;;;;;;;7.45;0.90;;;;;;;8.31;50.37;100038.97;5062127;28;20504;-67
2023/01/08 10:06:54;;;;;;;7.10;1.33;;;;;;;8.10;49.88;100036.38;5063244;28;20036;-67
2023/01/08 10:09:31;;;;;;;3.28;0.90;;;;;;;7.55;50.33;100040.44;5062421;28;20044;-67
2023/01/08 10:12:00;;;;;;;4.07;0.52;;;;;;;7.25;51.32;100040.75;5063490;28;20451;-67
2023/01/08 10:14:38;;;;;;;4.93;0.77;;;;;;;7.28;51.50;100033.66;5077632;27;20058;-67
2023/01/08 10:17:16;;;;;;;2.78;0.65;;;;;;;7.03;51.69;100035.53;5064777;28;20265;-67
2023/01/08 10:19:43;;;;;;;5.72;0.80;;;;;;;7.01;51.58;100038.19;5062507;28;20036;-67
2023/01/08 10:22:13;;;;;;;4.25;0.43;;;;;;;8.12;49.72;100031.97;5063278;28;20040;-66
2023/01/08 10:24:39;;;;;;;3.92;0.50;;;;;;;8.09;49.17;100026.91;5064130;28;20142;-65
2023/01/08 10:27:06;;;;;;;4.57;0.73;;;;;;;8.54;48.38;100035.38;5066131;27;20043;-66
2023/01/08 10:29:32;;;;;;;2.10;0.50;;;;;;;7.97;48.72;100018.75;5064514;28;20115;-66
2023/01/08 10:31:57;;;;;;;6.95;0.70;;;;;;;8.93;46.96;100011.03;5064151;27;20471;-66
2023/01/08 10:34:46;;;;;;;4.25;0.85;;;;;;;8.57;47.55;100023.03;5058358;28;20048;-66
2023/01/08 10:37:36;;;;;;;6.55;0.70;;;;;;;8.62;47.19;100006.34;5054445;28;20071;-67
2023/01/08 10:40:07;;;;;;;4.03;0.40;;;;;;;8.17;48.89;100015.31;5063614;28;20127;-66
2023/01/08 10:42:35;;;;;;;3.95;0.30;;;;;;;8.46;47.59;100004.44;5060746;28;20166;-68
2023/01/08 10:45:10;;;;;;;3.15;0.50;;;;;;;8.63;47.01;100000.22;5062452;28;20054;-66
2023/01/08 10:47:37;;;;;;;6.78;0.43;;;;;;;9.14;45.26;99989.16;5064263;28;20260;-66
2023/01/08 10:50:05;;;;;;;4.05;0.20;;;;;;;8.93;46.07;99984.97;5074476;28;20120;-66
2023/01/08 10:52:35;;;;;;;3.97;0.73;;;;;;;8.53;46.33;99982.41;5064555;28;20044;-67
2023/01/08 10:55:22;;;;;;;3.45;0.43;;;;;;;8.20;47.40;99983.94;5041990;28;20113;-66
2023/01/08 10:58:21;;;;;;;10.55;0.40;;;;;;;8.48;47.13;99979.16;5063927;28;20288;-67
2023/01/08 11:00:47;;;;;;;6.28;0.40;;;;;;;8.36;46.69;99974.53;5067594;27;20040;-67
2023/01/08 11:03:27;;;;;;;3.28;0.30;;;;;;;8.25;46.99;99969.81;5066547;28;20036;-67
2023/01/08 11:05:53;;;;;;;4.05;0.40;;;;;;;7.97;47.73;99962.34;5044055;28;20473;-67
2023/01/08 11:08:20;;;;;;;4.68;0.47;;;;;;;8.06;47.63;99964.56;5063405;28;20544;-67
2023/01/08 11:11:00;;;;;;;5.65;0.90;;;;;;;8.24;47.14;99970.69;5060200;28;20174;-66
2023/01/08 11:13:27;;;;;;;3.13;0.25;;;;;;;8.59;46.17;99968.28;5062898;28;20036;-67
2023/01/08 11:16:06;;;;;;;7.78;0.75;;;;;;;8.44;46.18;99976.78;5061261;27;20037;-67
2023/01/08 11:18:42;;;;;;;6.78;0.82;;;;;;;7.64;47.46;99965.47;5061438;27;20860;-66
2023/01/08 11:21:16;;;;;;;5.38;0.95;;;;;;;7.90;47.22;99972.19;5064252;28;20499;-67
2023/01/08 11:23:42;;;;;;;3.72;0.65;;;;;;;8.03;46.88;99976.88;5059335;28;20060;-67
2023/01/08 11:26:14;;;;;;;5.50;0.20;;;;;;;8.30;46.32;99969.59;5060945;27;20147;-67
2023/01/08 11:32:25;;;;;;;6.72;0.57;;;;;;;8.62;44.60;99964.69;5055264;28;20168;-66
2023/01/08 11:34:54;;;;;;;1.75;0.43;;;;;;;8.74;44.75;99948.53;5054426;28;20528;-66
2023/01/08 11:37:32;;;;;;;1.83;0.30;;;;;;;8.63;44.43;99943.78;5059809;28;20049;-66
2023/01/08 11:39:59;;;;;;;3.33;0.30;;;;;;;9.02;43.72;99941.97;5057749;28;20032;-66
2023/01/08 11:43:07;;;;;;;3.40;0.50;;;;;;;9.02;44.24;99939.38;5068682;27;20039;-66
2023/01/08 11:45:50;;;;;;;4.35;0.47;;;;;;;8.49;44.86;99944.38;5049766;28;20040;-67